This is the latest recevied weather packets stored in our database for station/object KC8TAI. If no packets are shown the sender has not sent any weather packets the latest 10 day(s).
| Time | Temp. | Humidity | Pressure | Rain* | Wind** | Luminosity | Snow |
|---|---|---|---|---|---|---|---|
| 1777539921 | 9.44° C | 86% | 1010.6 hPa | 0 mm | - | 0 W/m² | - |
| 1777538741 | 9.44° C | 88% | 1010.6 hPa | 0 mm | - | 0 W/m² | - |
| 1777527956 | 10.56° C | 90% | 1010 hPa | 0 mm | - | 0 W/m² | - |
| 1777524917 | 10° C | 94% | 1010.4 hPa | 0 mm | - | 0 W/m² | - |
| 1777520718 | 10.56° C | 93% | 1010.8 hPa | 0 mm | - | 0 W/m² | - |
| 1777518318 | 11.11° C | 91% | 1010.7 hPa | 0 mm | - | 0 W/m² | - |
| 1777508116 | 13.89° C | 94% | 1008.8 hPa | 1.27 mm | - | 2 W/m² | - |
| 1777504517 | 14.44° C | 93% | 1007.8 hPa | 0 mm | - | 15 W/m² | - |
| 1777503317 | 15° C | 93% | 1007.9 hPa | 0 mm | - | 82 W/m² | - |
| 1777501518 | 14.44° C | 94% | 1007.4 hPa | 0.51 mm | - | 69 W/m² | - |
| 1777494317 | 15.56° C | 94% | 1006.6 hPa | 1.52 mm | - | 51 W/m² | - |
| 1777491918 | 16.11° C | 92% | 1007.2 hPa | 3.05 mm | - | 149 W/m² | - |
| 1777490118 | 17.22° C | 89% | 1007.3 hPa | 0.76 mm | - | 124 W/m² | - |
| 1777489518 | 17.78° C | 84% | 1007.3 hPa | 0.51 mm | - | 175 W/m² | - |
| 1777488318 | 18.33° C | 87% | 1007.2 hPa | 0.51 mm | - | 252 W/m² | - |
| 1777486519 | 17.22° C | 91% | 1007.8 hPa | 0.76 mm | - | 601 W/m² | - |
| 1777485916 | 16.67° C | 89% | 1008.6 hPa | 0.25 mm | - | 73 W/m² | - |
| 1777480538 | 16.67° C | 90% | 1009.5 hPa | 0 mm | - | 191 W/m² | - |
| 1777478136 | 15.56° C | 93% | 1010 hPa | 0 mm | - | 294 W/m² | - |
| 1777474517 | 14.44° C | 96% | 1011.5 hPa | 3.56 mm | - | 107 W/m² | - |
| 1777470920 | 13.33° C | 99% | 1012.2 hPa | 2.79 mm | - | 26 W/m² | - |
| 1777467338 | 12.78° C | 98% | 1010.6 hPa | 0 mm | - | 173 W/m² | - |
| 1777466718 | 12.22° C | 98% | 1010.5 hPa | 0 mm | - | 104 W/m² | - |
| 1777461919 | 11.67° C | 98% | 1011.9 hPa | 0 mm | - | 36 W/m² | - |
| 1777460120 | 11.11° C | 98% | 1012.1 hPa | 0 mm | - | 10 W/m² | - |
* Rain latest hour (hover to see other rain measurements)
** Current wind speed in m/s (hover to see current wind gust speed)